sensor_id;sensor_type;location;lat;lon;timestamp;pressure;altitude;pressure_sealevel;temperature;humidity
76257;BME280;65074;50.436;8.672;2022-12-20T00:00:51;99920.28;;;1.70;100.00
76257;BME280;65074;50.436;8.672;2022-12-20T00:03:16;99917.78;;;1.68;100.00
76257;BME280;65074;50.436;8.672;2022-12-20T00:05:42;99918.44;;;1.70;100.00
76257;BME280;65074;50.436;8.672;2022-12-20T00:08:09;99915.66;;;1.64;100.00
76257;BME280;65074;50.436;8.672;2022-12-20T00:10:38;99909.09;;;1.60;100.00
76257;BME280;65074;50.436;8.672;2022-12-20T00:13:04;99913.56;;;1.59;100.00
76257;BME280;65074;50.436;8.672;2022-12-20T00:15:30;99907.47;;;1.51;100.00
76257;BME280;65074;50.436;8.672;2022-12-20T00:17:56;99905.22;;;1.48;100.00
76257;BME280;65074;50.436;8.672;2022-12-20T00:20:22;99901.44;;;1.42;100.00
76257;BME280;65074;50.436;8.672;2022-12-20T00:22:47;99898.53;;;1.52;100.00
76257;BME280;65074;50.436;8.672;2022-12-20T00:25:13;99902.03;;;1.52;100.00
76257;BME280;65074;50.436;8.672;2022-12-20T00:27:38;99905.50;;;1.53;100.00
76257;BME280;65074;50.436;8.672;2022-12-20T00:30:04;99906.00;;;1.48;100.00
76257;BME280;65074;50.436;8.672;2022-12-20T00:32:30;99888.81;;;1.44;100.00
76257;BME280;65074;50.436;8.672;2022-12-20T00:34:56;99886.53;;;1.41;100.00
76257;BME280;65074;50.436;8.672;2022-12-20T00:37:23;99879.28;;;1.35;100.00
76257;BME280;65074;50.436;8.672;2022-12-20T00:39:48;99877.78;;;1.41;100.00
76257;BME280;65074;50.436;8.672;2022-12-20T00:42:13;99872.97;;;1.36;100.00
76257;BME280;65074;50.436;8.672;2022-12-20T00:44:40;99867.75;;;1.28;100.00
76257;BME280;65074;50.436;8.672;2022-12-20T00:47:06;99871.75;;;1.24;100.00
76257;BME280;65074;50.436;8.672;2022-12-20T00:49:32;99867.47;;;1.23;100.00
76257;BME280;65074;50.436;8.672;2022-12-20T00:51:57;99864.44;;;1.26;100.00
76257;BME280;65074;50.436;8.672;2022-12-20T00:54:23;99873.34;;;1.33;100.00
76257;BME280;65074;50.436;8.672;2022-12-20T00:56:48;99862.63;;;1.26;100.00
76257;BME280;65074;50.436;8.672;2022-12-20T00:59:14;99865.81;;;1.22;100.00
76257;BME280;65074;50.436;8.672;2022-12-20T01:01:39;99867.19;;;1.18;100.00
76257;BME280;65074;50.436;8.672;2022-12-20T01:04:05;99865.34;;;1.18;100.00
76257;BME280;65074;50.436;8.672;2022-12-20T01:06:30;99868.00;;;1.18;100.00
76257;BME280;65074;50.436;8.672;2022-12-20T01:08:57;99874.59;;;1.22;100.00
76257;BME280;65074;50.436;8.672;2022-12-20T01:11:29;99873.75;;;1.22;100.00
76257;BME280;65074;50.436;8.672;2022-12-20T01:13:58;99869.19;;;1.16;100.00
76257;BME280;65074;50.436;8.672;2022-12-20T01:16:29;99875.81;;;1.12;100.00
76257;BME280;65074;50.436;8.672;2022-12-20T01:18:55;99870.34;;;1.13;100.00
76257;BME280;65074;50.436;8.672;2022-12-20T01:21:22;99870.53;;;1.12;100.00
76257;BME280;65074;50.436;8.672;2022-12-20T01:23:48;99871.00;;;1.15;100.00
76257;BME280;65074;50.436;8.672;2022-12-20T01:26:16;99866.88;;;1.13;100.00
76257;BME280;65074;50.436;8.672;2022-12-20T01:28:44;99874.88;;;1.05;100.00
76257;BME280;65074;50.436;8.672;2022-12-20T01:31:12;99866.59;;;1.08;100.00
76257;BME280;65074;50.436;8.672;2022-12-20T01:33:39;99865.56;;;1.09;100.00
76257;BME280;65074;50.436;8.672;2022-12-20T01:36:10;99859.38;;;1.16;100.00
76257;BME280;65074;50.436;8.672;2022-12-20T01:38:36;99858.50;;;1.24;100.00
76257;BME280;65074;50.436;8.672;2022-12-20T01:41:02;99862.38;;;1.36;100.00
76257;BME280;65074;50.436;8.672;2022-12-20T01:43:56;99866.72;;;1.52;100.00
76257;BME280;65074;50.436;8.672;2022-12-20T01:46:30;99874.63;;;1.60;100.00
76257;BME280;65074;50.436;8.672;2022-12-20T01:49:01;99855.50;;;1.64;100.00
76257;BME280;65074;50.436;8.672;2022-12-20T01:51:31;99848.66;;;1.70;100.00
76257;BME280;65074;50.436;8.672;2022-12-20T01:54:13;99848.13;;;1.74;100.00
76257;BME280;65074;50.436;8.672;2022-12-20T01:56:42;99866.13;;;1.79;100.00
76257;BME280;65074;50.436;8.672;2022-12-20T01:59:09;99842.63;;;1.76;100.00
76257;BME280;65074;50.436;8.672;2022-12-20T02:01:36;99840.16;;;1.74;100.00
76257;BME280;65074;50.436;8.672;2022-12-20T02:04:02;99835.97;;;1.65;100.00
76257;BME280;65074;50.436;8.672;2022-12-20T02:06:27;99839.69;;;1.71;100.00
76257;BME280;65074;50.436;8.672;2022-12-20T02:08:56;99856.50;;;1.63;100.00
76257;BME280;65074;50.436;8.672;2022-12-20T02:11:45;99854.03;;;1.62;100.00
76257;BME280;65074;50.436;8.672;2022-12-20T02:16:53;99820.94;;;1.58;100.00
76257;BME280;65074;50.436;8.672;2022-12-20T02:25:32;99802.13;;;1.67;100.00
76257;BME280;65074;50.436;8.672;2022-12-20T02:30:44;99792.06;;;1.77;100.00
76257;BME280;65074;50.436;8.672;2022-12-20T02:33:12;99793.34;;;1.67;100.00
76257;BME280;65074;50.436;8.672;2022-12-20T02:35:40;99797.38;;;1.63;100.00
76257;BME280;65074;50.436;8.672;2022-12-20T02:41:07;99788.59;;;1.62;100.00
76257;BME280;65074;50.436;8.672;2022-12-20T02:43:37;99798.91;;;1.72;100.00
76257;BME280;65074;50.436;8.672;2022-12-20T02:46:25;99800.19;;;1.61;100.00
76257;BME280;65074;50.436;8.672;2022-12-20T02:48:55;99796.97;;;1.51;100.00
76257;BME280;65074;50.436;8.672;2022-12-20T02:51:22;99795.88;;;1.46;100.00
76257;BME280;65074;50.436;8.672;2022-12-20T02:53:50;99792.19;;;1.32;100.00
76257;BME280;65074;50.436;8.672;2022-12-20T02:56:44;99787.59;;;1.26;100.00
76257;BME280;65074;50.436;8.672;2022-12-20T02:59:20;99792.16;;;1.17;100.00
76257;BME280;65074;50.436;8.672;2022-12-20T03:01:50;99789.75;;;1.08;100.00
76257;BME280;65074;50.436;8.672;2022-12-20T03:04:17;99789.75;;;1.08;100.00
76257;BME280;65074;50.436;8.672;2022-12-20T03:07:07;99780.09;;;1.15;100.00
76257;BME280;65074;50.436;8.672;2022-12-20T03:09:35;99785.03;;;1.18;100.00
76257;BME280;65074;50.436;8.672;2022-12-20T03:12:02;99789.97;;;1.21;100.00
76257;BME280;65074;50.436;8.672;2022-12-20T03:14:29;99794.00;;;1.31;100.00
76257;BME280;65074;50.436;8.672;2022-12-20T03:16:57;99798.34;;;1.47;100.00
76257;BME280;65074;50.436;8.672;2022-12-20T03:19:23;99797.25;;;1.56;100.00
76257;BME280;65074;50.436;8.672;2022-12-20T03:21:48;99793.69;;;1.49;100.00
76257;BME280;65074;50.436;8.672;2022-12-20T03:24:14;99805.47;;;1.47;100.00
76257;BME280;65074;50.436;8.672;2022-12-20T03:26:40;99815.38;;;1.53;100.00
76257;BME280;65074;50.436;8.672;2022-12-20T03:29:06;99816.34;;;1.52;100.00
76257;BME280;65074;50.436;8.672;2022-12-20T03:31:32;99817.19;;;1.52;100.00
76257;BME280;65074;50.436;8.672;2022-12-20T03:33:57;99825.50;;;1.49;100.00
76257;BME280;65074;50.436;8.672;2022-12-20T03:36:23;99818.72;;;1.47;100.00
76257;BME280;65074;50.436;8.672;2022-12-20T03:38:54;99801.53;;;1.43;100.00
76257;BME280;65074;50.436;8.672;2022-12-20T03:41:21;99808.19;;;1.39;100.00
76257;BME280;65074;50.436;8.672;2022-12-20T03:43:48;99810.53;;;1.33;100.00
76257;BME280;65074;50.436;8.672;2022-12-20T03:46:14;99800.69;;;1.27;100.00
76257;BME280;65074;50.436;8.672;2022-12-20T03:48:40;99780.75;;;1.31;100.00
76257;BME280;65074;50.436;8.672;2022-12-20T03:51:07;99772.38;;;1.28;100.00
76257;BME280;65074;50.436;8.672;2022-12-20T03:53:33;99774.53;;;1.24;100.00
76257;BME280;65074;50.436;8.672;2022-12-20T03:55:59;99773.41;;;1.19;100.00
76257;BME280;65074;50.436;8.672;2022-12-20T03:58:24;99769.13;;;1.18;100.00
76257;BME280;65074;50.436;8.672;2022-12-20T04:00:50;99770.13;;;1.17;100.00
76257;BME280;65074;50.436;8.672;2022-12-20T04:03:34;99781.00;;;1.22;100.00
76257;BME280;65074;50.436;8.672;2022-12-20T04:05:59;99783.13;;;1.26;100.00
76257;BME280;65074;50.436;8.672;2022-12-20T04:08:25;99786.25;;;1.30;100.00
76257;BME280;65074;50.436;8.672;2022-12-20T04:10:51;99786.81;;;1.40;100.00
76257;BME280;65074;50.436;8.672;2022-12-20T04:13:36;99782.44;;;1.47;100.00
76257;BME280;65074;50.436;8.672;2022-12-20T04:16:02;99779.97;;;1.46;100.00
76257;BME280;65074;50.436;8.672;2022-12-20T04:18:31;99785.19;;;1.54;100.00
76257;BME280;65074;50.436;8.672;2022-12-20T04:21:02;99778.53;;;1.58;100.00
76257;BME280;65074;50.436;8.672;2022-12-20T04:23:33;99775.75;;;1.51;100.00
76257;BME280;65074;50.436;8.672;2022-12-20T04:25:59;99761.88;;;1.49;100.00
76257;BME280;65074;50.436;8.672;2022-12-20T04:28:27;99769.19;;;1.47;100.00
76257;BME280;65074;50.436;8.672;2022-12-20T04:30:54;99772.81;;;1.46;100.00
76257;BME280;65074;50.436;8.672;2022-12-20T04:33:24;99770.81;;;1.48;100.00
76257;BME280;65074;50.436;8.672;2022-12-20T04:35:50;99762.34;;;1.53;100.00
76257;BME280;65074;50.436;8.672;2022-12-20T04:38:17;99768.81;;;1.50;100.00
76257;BME280;65074;50.436;8.672;2022-12-20T04:40:43;99762.69;;;1.50;100.00
76257;BME280;65074;50.436;8.672;2022-12-20T04:43:09;99762.84;;;1.48;100.00
76257;BME280;65074;50.436;8.672;2022-12-20T04:45:34;99757.56;;;1.48;100.00
76257;BME280;65074;50.436;8.672;2022-12-20T04:48:01;99746.94;;;1.48;100.00
76257;BME280;65074;50.436;8.672;2022-12-20T04:50:34;99749.44;;;1.50;100.00
76257;BME280;65074;50.436;8.672;2022-12-20T04:52:59;99752.53;;;1.53;100.00
76257;BME280;65074;50.436;8.672;2022-12-20T04:55:43;99743.59;;;1.54;100.00
76257;BME280;65074;50.436;8.672;2022-12-20T04:58:08;99753.19;;;1.55;100.00
76257;BME280;65074;50.436;8.672;2022-12-20T05:00:37;99752.09;;;1.50;100.00
76257;BME280;65074;50.436;8.672;2022-12-20T05:03:15;99749.88;;;1.53;100.00
76257;BME280;65074;50.436;8.672;2022-12-20T05:05:40;99748.53;;;1.57;100.00
76257;BME280;65074;50.436;8.672;2022-12-20T05:08:06;99754.47;;;1.59;100.00
76257;BME280;65074;50.436;8.672;2022-12-20T05:10:31;99747.34;;;1.60;100.00
76257;BME280;65074;50.436;8.672;2022-12-20T05:13:00;99740.03;;;1.62;100.00
76257;BME280;65074;50.436;8.672;2022-12-20T05:15:33;99726.97;;;1.60;100.00
76257;BME280;65074;50.436;8.672;2022-12-20T05:17:59;99737.00;;;1.65;100.00
76257;BME280;65074;50.436;8.672;2022-12-20T05:20:28;99737.00;;;1.65;100.00
76257;BME280;65074;50.436;8.672;2022-12-20T05:22:56;99739.31;;;1.68;100.00
76257;BME280;65074;50.436;8.672;2022-12-20T05:25:48;99737.94;;;1.72;100.00
76257;BME280;65074;50.436;8.672;2022-12-20T05:28:33;99731.88;;;1.78;100.00
76257;BME280;65074;50.436;8.672;2022-12-20T05:30:59;99735.53;;;1.77;100.00
76257;BME280;65074;50.436;8.672;2022-12-20T05:33:25;99742.94;;;1.81;100.00
76257;BME280;65074;50.436;8.672;2022-12-20T05:35:51;99742.31;;;1.79;100.00
76257;BME280;65074;50.436;8.672;2022-12-20T05:38:16;99737.84;;;1.80;100.00
76257;BME280;65074;50.436;8.672;2022-12-20T05:40:46;99714.13;;;1.78;100.00
76257;BME280;65074;50.436;8.672;2022-12-20T05:43:11;99716.41;;;1.81;100.00
76257;BME280;65074;50.436;8.672;2022-12-20T05:45:47;99719.78;;;1.75;100.00
76257;BME280;65074;50.436;8.672;2022-12-20T05:48:17;99712.66;;;1.76;100.00
76257;BME280;65074;50.436;8.672;2022-12-20T05:50:45;99704.63;;;1.84;100.00
76257;BME280;65074;50.436;8.672;2022-12-20T05:53:26;99707.75;;;1.87;100.00
76257;BME280;65074;50.436;8.672;2022-12-20T05:55:54;99703.75;;;1.98;100.00
76257;BME280;65074;50.436;8.672;2022-12-20T05:58:25;99702.56;;;2.01;100.00
76257;BME280;65074;50.436;8.672;2022-12-20T06:00:55;99694.41;;;2.17;100.00
76257;BME280;65074;50.436;8.672;2022-12-20T06:03:21;99704.78;;;2.33;100.00
76257;BME280;65074;50.436;8.672;2022-12-20T06:05:46;99694.63;;;2.36;100.00
76257;BME280;65074;50.436;8.672;2022-12-20T06:08:18;99694.88;;;2.41;100.00
76257;BME280;65074;50.436;8.672;2022-12-20T06:10:46;99710.13;;;2.54;100.00
76257;BME280;65074;50.436;8.672;2022-12-20T06:13:23;99710.16;;;2.39;100.00
76257;BME280;65074;50.436;8.672;2022-12-20T06:15:51;99717.03;;;2.34;100.00
76257;BME280;65074;50.436;8.672;2022-12-20T06:18:18;99718.31;;;2.38;100.00
76257;BME280;65074;50.436;8.672;2022-12-20T06:20:49;99718.63;;;2.49;100.00
76257;BME280;65074;50.436;8.672;2022-12-20T06:23:17;99718.75;;;2.41;100.00
76257;BME280;65074;50.436;8.672;2022-12-20T06:25:52;99716.97;;;2.27;100.00
76257;BME280;65074;50.436;8.672;2022-12-20T06:28:19;99702.16;;;2.18;100.00
76257;BME280;65074;50.436;8.672;2022-12-20T06:30:54;99705.03;;;2.17;100.00
76257;BME280;65074;50.436;8.672;2022-12-20T06:33:35;99705.66;;;2.19;100.00
76257;BME280;65074;50.436;8.672;2022-12-20T06:36:01;99713.91;;;2.09;100.00
76257;BME280;65074;50.436;8.672;2022-12-20T06:38:27;99707.50;;;2.04;100.00
76257;BME280;65074;50.436;8.672;2022-12-20T06:40:53;99713.28;;;2.07;100.00
76257;BME280;65074;50.436;8.672;2022-12-20T06:43:18;99724.31;;;2.11;100.00
76257;BME280;65074;50.436;8.672;2022-12-20T06:45:45;99715.44;;;2.18;100.00
76257;BME280;65074;50.436;8.672;2022-12-20T06:48:11;99719.81;;;2.26;100.00
76257;BME280;65074;50.436;8.672;2022-12-20T06:50:37;99738.84;;;2.29;100.00
76257;BME280;65074;50.436;8.672;2022-12-20T06:53:04;99731.00;;;2.42;100.00
76257;BME280;65074;50.436;8.672;2022-12-20T06:55:29;99733.03;;;2.40;100.00
76257;BME280;65074;50.436;8.672;2022-12-20T06:57:55;99735.31;;;2.43;100.00
76257;BME280;65074;50.436;8.672;2022-12-20T07:00:21;99740.53;;;2.51;100.00
76257;BME280;65074;50.436;8.672;2022-12-20T07:02:47;99737.09;;;2.57;100.00
76257;BME280;65074;50.436;8.672;2022-12-20T07:05:12;99739.00;;;2.63;100.00
76257;BME280;65074;50.436;8.672;2022-12-20T07:07:38;99734.00;;;2.75;100.00
76257;BME280;65074;50.436;8.672;2022-12-20T07:10:04;99723.13;;;2.70;100.00
76257;BME280;65074;50.436;8.672;2022-12-20T07:12:29;99725.53;;;2.65;100.00
76257;BME280;65074;50.436;8.672;2022-12-20T07:14:55;99730.41;;;2.61;100.00
76257;BME280;65074;50.436;8.672;2022-12-20T07:17:20;99724.94;;;2.70;100.00
76257;BME280;65074;50.436;8.672;2022-12-20T07:19:45;99711.91;;;2.75;100.00
76257;BME280;65074;50.436;8.672;2022-12-20T07:22:11;99725.72;;;2.63;100.00
76257;BME280;65074;50.436;8.672;2022-12-20T07:24:36;99725.78;;;2.70;100.00
76257;BME280;65074;50.436;8.672;2022-12-20T07:27:03;99723.06;;;2.63;100.00
76257;BME280;65074;50.436;8.672;2022-12-20T07:29:29;99716.69;;;2.58;100.00
76257;BME280;65074;50.436;8.672;2022-12-20T07:31:54;99707.50;;;2.60;100.00
76257;BME280;65074;50.436;8.672;2022-12-20T07:34:20;99689.91;;;2.59;100.00
76257;BME280;65074;50.436;8.672;2022-12-20T07:36:45;99694.44;;;2.59;100.00
76257;BME280;65074;50.436;8.672;2022-12-20T07:39:11;99697.13;;;2.66;100.00
76257;BME280;65074;50.436;8.672;2022-12-20T07:41:36;99691.19;;;2.63;100.00
76257;BME280;65074;50.436;8.672;2022-12-20T07:44:01;99691.31;;;2.55;100.00
76257;BME280;65074;50.436;8.672;2022-12-20T07:46:27;99690.31;;;2.56;100.00
76257;BME280;65074;50.436;8.672;2022-12-20T07:48:52;99684.59;;;2.59;100.00
76257;BME280;65074;50.436;8.672;2022-12-20T07:51:24;99675.19;;;2.57;100.00
76257;BME280;65074;50.436;8.672;2022-12-20T07:53:56;99676.22;;;2.56;100.00
76257;BME280;65074;50.436;8.672;2022-12-20T07:56:23;99680.50;;;2.57;100.00
76257;BME280;65074;50.436;8.672;2022-12-20T07:58:53;99676.47;;;2.61;100.00
76257;BME280;65074;50.436;8.672;2022-12-20T08:01:22;99685.63;;;2.58;100.00
76257;BME280;65074;50.436;8.672;2022-12-20T08:03:51;99672.28;;;2.73;100.00
76257;BME280;65074;50.436;8.672;2022-12-20T08:06:18;99680.63;;;2.70;100.00
76257;BME280;65074;50.436;8.672;2022-12-20T08:08:47;99678.59;;;2.72;100.00
76257;BME280;65074;50.436;8.672;2022-12-20T08:11:15;99685.56;;;2.73;100.00
76257;BME280;65074;50.436;8.672;2022-12-20T08:13:41;99678.59;;;2.72;100.00
76257;BME280;65074;50.436;8.672;2022-12-20T08:16:07;99679.41;;;2.73;100.00
76257;BME280;65074;50.436;8.672;2022-12-20T08:18:32;99668.22;;;2.77;100.00
76257;BME280;65074;50.436;8.672;2022-12-20T08:20:57;99670.03;;;2.77;100.00
76257;BME280;65074;50.436;8.672;2022-12-20T08:23:23;99663.34;;;2.81;100.00
76257;BME280;65074;50.436;8.672;2022-12-20T08:25:48;99662.16;;;2.83;100.00
76257;BME280;65074;50.436;8.672;2022-12-20T08:28:14;99659.56;;;2.96;100.00
76257;BME280;65074;50.436;8.672;2022-12-20T08:30:39;99655.66;;;2.92;100.00
76257;BME280;65074;50.436;8.672;2022-12-20T08:33:05;99660.03;;;3.00;100.00
76257;BME280;65074;50.436;8.672;2022-12-20T08:35:30;99657.88;;;3.16;100.00
76257;BME280;65074;50.436;8.672;2022-12-20T08:37:56;99654.34;;;3.09;100.00
76257;BME280;65074;50.436;8.672;2022-12-20T08:40:21;99650.06;;;3.08;100.00
76257;BME280;65074;50.436;8.672;2022-12-20T08:42:46;99650.25;;;3.07;100.00
76257;BME280;65074;50.436;8.672;2022-12-20T08:45:12;99647.22;;;3.10;100.00
76257;BME280;65074;50.436;8.672;2022-12-20T08:47:37;99642.38;;;3.20;100.00
76257;BME280;65074;50.436;8.672;2022-12-20T08:50:04;99645.13;;;3.33;100.00
76257;BME280;65074;50.436;8.672;2022-12-20T08:52:29;99650.47;;;3.40;100.00
76257;BME280;65074;50.436;8.672;2022-12-20T08:54:55;99647.66;;;3.54;100.00
76257;BME280;65074;50.436;8.672;2022-12-20T08:57:20;99648.28;;;3.56;100.00
76257;BME280;65074;50.436;8.672;2022-12-20T08:59:45;99646.47;;;3.63;100.00
76257;BME280;65074;50.436;8.672;2022-12-20T09:02:11;99648.75;;;3.66;100.00
76257;BME280;65074;50.436;8.672;2022-12-20T09:04:36;99643.44;;;3.73;100.00
76257;BME280;65074;50.436;8.672;2022-12-20T09:07:02;99646.09;;;3.73;100.00
76257;BME280;65074;50.436;8.672;2022-12-20T09:09:27;99653.31;;;3.85;100.00
76257;BME280;65074;50.436;8.672;2022-12-20T09:11:52;99645.78;;;3.89;100.00
76257;BME280;65074;50.436;8.672;2022-12-20T09:14:18;99651.72;;;3.97;100.00
76257;BME280;65074;50.436;8.672;2022-12-20T09:16:43;99648.88;;;4.06;100.00
76257;BME280;65074;50.436;8.672;2022-12-20T09:19:11;99638.06;;;4.07;100.00
76257;BME280;65074;50.436;8.672;2022-12-20T09:21:37;99644.78;;;4.03;100.00
76257;BME280;65074;50.436;8.672;2022-12-20T09:24:02;99634.53;;;4.00;100.00
76257;BME280;65074;50.436;8.672;2022-12-20T09:26:27;99635.78;;;4.11;100.00
76257;BME280;65074;50.436;8.672;2022-12-20T09:28:54;99635.41;;;4.07;100.00
76257;BME280;65074;50.436;8.672;2022-12-20T09:31:22;99637.88;;;4.22;100.00
76257;BME280;65074;50.436;8.672;2022-12-20T09:33:47;99623.53;;;4.16;100.00
76257;BME280;65074;50.436;8.672;2022-12-20T09:36:16;99627.44;;;4.27;100.00
76257;BME280;65074;50.436;8.672;2022-12-20T09:38:42;99638.09;;;4.27;100.00
76257;BME280;65074;50.436;8.672;2022-12-20T09:41:21;99626.81;;;4.18;100.00
76257;BME280;65074;50.436;8.672;2022-12-20T09:43:48;99620.28;;;4.34;100.00
76257;BME280;65074;50.436;8.672;2022-12-20T09:46:14;99613.94;;;4.48;100.00
76257;BME280;65074;50.436;8.672;2022-12-20T09:48:41;99606.34;;;4.45;100.00
76257;BME280;65074;50.436;8.672;2022-12-20T09:51:27;99610.06;;;4.44;100.00
76257;BME280;65074;50.436;8.672;2022-12-20T09:54:01;99613.31;;;4.52;100.00
76257;BME280;65074;50.436;8.672;2022-12-20T09:56:45;99609.63;;;4.60;100.00
76257;BME280;65074;50.436;8.672;2022-12-20T09:59:19;99598.38;;;4.58;100.00
76257;BME280;65074;50.436;8.672;2022-12-20T10:01:46;99597.13;;;4.60;100.00
76257;BME280;65074;50.436;8.672;2022-12-20T10:04:26;99598.78;;;4.68;100.00
76257;BME280;65074;50.436;8.672;2022-12-20T10:13:04;99590.41;;;4.51;100.00
76257;BME280;65074;50.436;8.672;2022-12-20T10:15:51;99591.81;;;4.34;100.00
76257;BME280;65074;50.436;8.672;2022-12-20T10:23:42;99569.09;;;4.51;100.00
76257;BME280;65074;50.436;8.672;2022-12-20T10:26:11;99569.47;;;4.68;100.00
76257;BME280;65074;50.436;8.672;2022-12-20T10:28:37;99560.03;;;4.79;100.00
76257;BME280;65074;50.436;8.672;2022-12-20T10:31:10;99569.84;;;4.72;100.00
76257;BME280;65074;50.436;8.672;2022-12-20T10:33:36;99556.38;;;4.67;100.00
76257;BME280;65074;50.436;8.672;2022-12-20T10:38:57;99538.72;;;4.72;100.00
76257;BME280;65074;50.436;8.672;2022-12-20T10:41:26;99542.19;;;4.73;100.00
76257;BME280;65074;50.436;8.672;2022-12-20T10:44:27;99534.81;;;5.39;100.00
76257;BME280;65074;50.436;8.672;2022-12-20T10:46:55;99530.97;;;6.60;96.15
76257;BME280;65074;50.436;8.672;2022-12-20T10:49:29;99531.63;;;6.30;95.49
76257;BME280;65074;50.436;8.672;2022-12-20T10:54:41;99526.53;;;6.47;95.35
76257;BME280;65074;50.436;8.672;2022-12-20T10:59:50;99524.50;;;6.67;94.23
76257;BME280;65074;50.436;8.672;2022-12-20T11:02:39;99525.47;;;6.30;95.29
76257;BME280;65074;50.436;8.672;2022-12-20T11:07:33;99519.94;;;6.25;95.15
76257;BME280;65074;50.436;8.672;2022-12-20T11:10:17;99524.47;;;6.74;93.88
76257;BME280;65074;50.436;8.672;2022-12-20T11:13:22;99518.78;;;6.88;93.49
76257;BME280;65074;50.436;8.672;2022-12-20T11:15:52;99516.53;;;6.85;92.56
76257;BME280;65074;50.436;8.672;2022-12-20T11:18:40;99512.31;;;6.53;93.82
76257;BME280;65074;50.436;8.672;2022-12-20T11:21:16;99518.84;;;5.76;96.85
76257;BME280;65074;50.436;8.672;2022-12-20T11:26:55;99506.53;;;5.31;98.91
76257;BME280;65074;50.436;8.672;2022-12-20T11:30:25;99515.84;;;5.09;100.00
76257;BME280;65074;50.436;8.672;2022-12-20T11:38:45;99519.16;;;5.11;100.00
76257;BME280;65074;50.436;8.672;2022-12-20T11:41:31;99498.03;;;5.09;100.00
76257;BME280;65074;50.436;8.672;2022-12-20T11:44:22;99498.41;;;5.19;100.00
76257;BME280;65074;50.436;8.672;2022-12-20T11:52:44;99482.88;;;5.03;100.00
76257;BME280;65074;50.436;8.672;2022-12-20T12:00:18;99477.09;;;5.13;100.00
76257;BME280;65074;50.436;8.672;2022-12-20T12:02:55;99471.75;;;5.13;100.00
76257;BME280;65074;50.436;8.672;2022-12-20T12:05:41;99470.91;;;5.19;100.00
76257;BME280;65074;50.436;8.672;2022-12-20T12:08:14;99460.88;;;5.14;100.00
76257;BME280;65074;50.436;8.672;2022-12-20T12:10:49;99458.63;;;5.11;100.00
76257;BME280;65074;50.436;8.672;2022-12-20T12:13:23;99465.38;;;5.14;100.00
76257;BME280;65074;50.436;8.672;2022-12-20T12:15:55;99453.34;;;5.05;100.00
76257;BME280;65074;50.436;8.672;2022-12-20T12:18:29;99453.50;;;5.10;100.00
76257;BME280;65074;50.436;8.672;2022-12-20T12:26:17;99453.28;;;5.11;100.00
76257;BME280;65074;50.436;8.672;2022-12-20T12:28:49;99441.59;;;5.12;100.00
76257;BME280;65074;50.436;8.672;2022-12-20T12:31:22;99437.66;;;5.21;100.00
76257;BME280;65074;50.436;8.672;2022-12-20T12:39:21;99455.66;;;5.33;100.00
76257;BME280;65074;50.436;8.672;2022-12-20T12:42:02;99438.41;;;5.35;100.00
76257;BME280;65074;50.436;8.672;2022-12-20T12:44:42;99422.00;;;5.38;100.00
76257;BME280;65074;50.436;8.672;2022-12-20T12:47:16;99420.09;;;5.45;100.00
76257;BME280;65074;50.436;8.672;2022-12-20T12:49:48;99422.94;;;5.50;100.00
76257;BME280;65074;50.436;8.672;2022-12-20T12:52:41;99426.25;;;5.70;99.46
76257;BME280;65074;50.436;8.672;2022-12-20T12:55:36;99420.00;;;5.83;98.89
76257;BME280;65074;50.436;8.672;2022-12-20T13:01:09;99421.19;;;5.94;98.15
76257;BME280;65074;50.436;8.672;2022-12-20T13:09:16;99400.13;;;5.79;98.94
76257;BME280;65074;50.436;8.672;2022-12-20T13:11:42;99396.44;;;5.80;98.96
76257;BME280;65074;50.436;8.672;2022-12-20T13:16:46;99394.81;;;5.79;99.10
76257;BME280;65074;50.436;8.672;2022-12-20T13:30:23;99382.53;;;5.47;100.00
76257;BME280;65074;50.436;8.672;2022-12-20T13:36:01;99388.84;;;5.52;100.00
76257;BME280;65074;50.436;8.672;2022-12-20T13:42:16;99395.75;;;5.35;100.00
76257;BME280;65074;50.436;8.672;2022-12-20T13:44:45;99392.91;;;5.23;100.00
76257;BME280;65074;50.436;8.672;2022-12-20T13:49:49;99386.38;;;5.19;100.00
76257;BME280;65074;50.436;8.672;2022-12-20T13:52:23;99394.03;;;5.16;100.00
76257;BME280;65074;50.436;8.672;2022-12-20T13:54:52;99397.41;;;5.30;100.00
76257;BME280;65074;50.436;8.672;2022-12-20T13:57:39;99401.16;;;5.22;100.00
76257;BME280;65074;50.436;8.672;2022-12-20T14:00:14;99403.44;;;5.12;100.00
76257;BME280;65074;50.436;8.672;2022-12-20T14:02:43;99399.38;;;5.09;100.00
76257;BME280;65074;50.436;8.672;2022-12-20T14:05:16;99404.81;;;5.28;100.00
76257;BME280;65074;50.436;8.672;2022-12-20T14:08:01;99400.59;;;5.13;100.00
76257;BME280;65074;50.436;8.672;2022-12-20T14:10:34;99394.25;;;5.08;100.00
76257;BME280;65074;50.436;8.672;2022-12-20T14:13:25;99388.84;;;5.21;100.00
76257;BME280;65074;50.436;8.672;2022-12-20T14:15:52;99372.94;;;5.01;100.00
76257;BME280;65074;50.436;8.672;2022-12-20T14:18:22;99372.75;;;5.03;100.00
76257;BME280;65074;50.436;8.672;2022-12-20T14:21:00;99367.66;;;4.95;100.00
76257;BME280;65074;50.436;8.672;2022-12-20T14:23:45;99366.25;;;4.92;100.00
76257;BME280;65074;50.436;8.672;2022-12-20T14:26:17;99372.16;;;4.94;100.00
76257;BME280;65074;50.436;8.672;2022-12-20T14:28:46;99362.16;;;4.90;100.00
76257;BME280;65074;50.436;8.672;2022-12-20T14:31:37;99349.28;;;4.80;100.00
76257;BME280;65074;50.436;8.672;2022-12-20T14:36:31;99334.75;;;4.76;100.00
76257;BME280;65074;50.436;8.672;2022-12-20T14:38:58;99333.53;;;4.79;100.00
76257;BME280;65074;50.436;8.672;2022-12-20T14:44:03;99349.41;;;4.92;100.00
76257;BME280;65074;50.436;8.672;2022-12-20T14:46:37;99352.34;;;4.84;100.00
76257;BME280;65074;50.436;8.672;2022-12-20T14:54:44;99348.88;;;4.77;100.00
76257;BME280;65074;50.436;8.672;2022-12-20T14:57:24;99354.03;;;4.72;100.00
76257;BME280;65074;50.436;8.672;2022-12-20T15:03:11;99345.25;;;4.71;100.00
76257;BME280;65074;50.436;8.672;2022-12-20T15:10:51;99354.88;;;4.66;100.00
76257;BME280;65074;50.436;8.672;2022-12-20T15:13:19;99352.69;;;4.49;100.00